Tiempo atmosférico en la estación meteorológica de Tornavacas, Cáceres (991 m.)



Fecha
DESCASC
Temp. máxima en grados centígrados (hora)
DESCASC
Temp. mínima en grados centígrados (hora)
DESCASC
Temp. media en grados centígrados
DESCASC
Racha de viento máxima en m/sg (hora)
DESCASC
Velocidad máxima media en intervalos de 10 minutos(hora)
DESCASC
Precipitaciones diarias en mm
DESCASC
Precipitaciones de 00:00 a 06:00 en mm
DESCASC
Precipitaciones de 06:00 a 12:00 en mm
DESCASC
Precipitaciones de 12:00 a 18:00 en mm
DESCASC
Precipitaciones de 18:00 a 24:00 en mm
DESCASC
28-12-2019 19.7 (15:10) 9.8 (00:00) 14.8 12.22 (07:20) 8.33 (07:20) 0 0 0 0 0
20-01-2020 0.9 (14:00) -2.9 (-00:0) -1 19.44 (04:20) 11.67 (14:10) 0 0 0 0 0
13-01-2020 8.6 (15:20) 1.3 (00:00) 5 5.56 (14:10) 4.17 (14:10) 0 0 0 0 0
12-01-2020 10.9 (16:20) 1.7 (00:00) 6.3 15 (07:20) 9.72 (07:00) 0 0 0 0 0
11-01-2020 10.3 (16:20) 1.9 (00:00) 6.1 13.61 (03:20) 8.89 (06:10) 0 0 0 0 0
10-01-2020 9 (15:50) 1.1 (00:00) 5.1 14.17 (00:20) 9.17 (07:50) 0 0 0 0 0
09-01-2020 14 (14:20) 5.1 (00:00) 9.5 12.5 (23:59) 7.78 (23:59) 0 0 0 0 0
08-01-2020 15.7 (12:00) 7.7 (00:00) 11.7 17.22 (08:20) 11.67 (02:00) 0 0 0 0 0
07-01-2020 15.3 (16:10) 7.1 (00:00) 11.2 12.22 (22:40) 9.72 (22:40) 0 0 0 0 0
06-01-2020 13.6 (13:50) 4.2 (00:00) 8.9 11.67 (21:30) 7.78 (22:20) 0 0 0 0 0
04-01-2020 10.1 (16:00) 2.4 (00:00) 6.3 13.06 (11:20) 8.61 (04:00) 0 0 0 0 0
03-01-2020 9.1 (17:10) 1 (00:00) 5.1 18.89 (08:20) 13.33 (09:50) 0 0 0 0 0
02-01-2020 13.5 (14:10) 4 (00:00) 8.8 4.17 (01:20) 3.06 (07:30) 0 0 0 0 0
01-01-2020 15.1 (15:20) 6.3 (00:00) 10.7 8.33 (20:50) 5 (20:50) 0 0 0 0 0
31-12-2019 15.8 (15:50) 7.8 (00:00) 11.8 13.89 (07:20) 8.89 (07:30) 0 0 0 0 0
30-12-2019 15.9 (13:50) 7 (00:00) 11.4 14.44 (03:20) 8.33 (03:30) 0 0 0 0 0
29-12-2019 18.5 (15:10) 8.6 (00:00) 13.6 9.72 (01:40) 7.78 (04:10) 0 0 0 0 0
05-01-2020 12.5 (16:30) 3.1 (00:00) 7.8 11.67 (05:20) 7.22 (05:40) 0 0 0 0 0
27-12-2019 17.5 (15:40) 5.8 (00:00) 11.7 9.17 (21:00) 6.67 (21:50) 0 0 0 0 0
18-01-2020 7.4 (20:50) 5 (00:00) 6.2 13.06 (23:40) 6.67 (22:50) 0.2 0 0 0 0.2
17-01-2020 10.7 (16:10) 5.2 (00:00) 7.9 8.06 (09:20) 5 (08:40) 1 0 1 0 0
21-01-2020 3.8 (22:20) 0 (00:00) 1.9 13.06 (10:30) 8.33 (17:20) 1.2 0 0 0.2 1
19-01-2020 5.6 (01:00) 0 (00:00) 2.8 19.17 (23:00) 11.39 (22:40) 2.8 1.6 1.2 0 0
22-01-2020 7.1 (15:40) 2.5 (00:00) 4.8 11.94 (06:20) 7.5 (09:40) 3.6 1.8 1.8 0 0
14-01-2020 5.9 (16:00) -0.2 (00:00) 2.9 11.67 (23:59) 6.39 (23:10) 3.8 0 0 0 3.8
16-01-2020 10.3 (16:20) 5.6 (00:00) 8 18.89 (19:10) 10.28 (16:50) 4 0.8 0.4 0 2.8
25-01-2020 8.7 (16:10) 3.4 (00:00) 6 7.22 (00:30) 4.72 (00:50) 5 2 0.8 0 2.2
24-01-2020 7.8 (15:00) 2.1 (00:00) 5 8.06 (22:40) 6.11 (20:50) 7.2 7 0.2 0 0
23-01-2020 5.6 (01:10) 3.4 (00:00) 4.5 7.78 (01:30) 5.28 (01:00) 16.4 2.4 3.8 4.2 6
15-01-2020 7.3 (22:20) 4.3 (00:00) 5.8 11.39 (07:30) 7.5 (00:30) 21 0.2 12.8 6 2

Gráficas

Temp. máximas Temp. mínimas Temp. medias Precipitaciones Rachas de viento máximas Velocidades máximas media en intervalos de 10 minutos

Datos horarios

Fecha y hora oficial Temperatura (ºC) Velocidad del viento (km/h) Dirección del viento Racha (km/h) Dirección de racha Precipitación (mm) Presión (hPa) Tendencia (hPa) Humedad (%)
2020-01-25 23:00:00 4.6 13 Este 21 Este 0 -- -- 88
2020-01-25 22:00:00 4.3 5 Este 6 Este 0.2 -- -- 95
2020-01-25 21:00:00 4.6 2 Nordeste 6 Sudoeste 0.8 -- -- 96
2020-01-25 20:00:00 4.9 6 Sudoeste 19 Sudoeste 1.2 -- -- 96
2020-01-25 19:00:00 5.6 10 Sudoeste 14 Sudoeste 0 -- -- 94
2020-01-25 18:00:00 6.1 6 Sudoeste 18 Sudoeste 0 -- -- 90
2020-01-25 17:00:00 7.8 7 Sudoeste 12 Sudoeste 0 -- -- 77
2020-01-25 16:00:00 7.9 4 Sudeste 18 Sudoeste 0 -- -- 78
2020-01-25 15:00:00 7.7 14 Sudoeste 18 Sudoeste 0 -- -- 78
2020-01-25 14:00:00 8.1 13 Sudoeste 19 Sudoeste 0 -- -- 77
2020-01-25 13:00:00 6.9 9 Sudoeste 14 Sudoeste 0 -- -- 84
2020-01-25 12:00:00 5.7 2 Sur 9 Sur 0 -- -- 92
2020-01-25 11:00:00 4.8 4 Sur 8 Este 0 -- -- 94
2020-01-25 10:00:00 3.8 0 Calma 6 Oeste 0.2 -- -- 96
2020-01-25 09:00:00 3.6 4 Sur 8 Sudeste 0.4 -- -- 95
2020-01-25 08:00:00 3.5 2 Sudoeste 5 Este 0 -- -- 95
2020-01-25 07:00:00 3.6 3 Sur 6 Sudeste 0.2 -- -- 94
2020-01-25 06:00:00 3.6 0 Calma 14 Nordeste 0.4 -- -- 93
2020-01-25 05:00:00 3.8 0 Calma 5 Sur 0.4 -- -- 93
2020-01-25 04:00:00 3.9 3 Este 6 Sudeste 1 -- -- 92
2020-01-25 03:00:00 4.7 4 Sudeste 17 Este 0.2 -- -- 85
2020-01-25 02:00:00 5 10 Nordeste 23 Nordeste 0 -- -- 77
2020-01-25 01:00:00 4.6 16 Nordeste 26 Nordeste 0 -- -- 75
2020-01-25 00:00:00 5.8 15 Este 28 Este 0 -- -- 68
2020-01-24 23:00:00 5.4 14 Este 29 Este 0 -- -- 71
2020-01-24 22:00:00 5.5 17 Este 24 Nordeste 0 -- -- 72
2020-01-24 21:00:00 4.6 20 Nordeste 28 Nordeste 0 -- -- 76
2020-01-24 20:00:00 3.7 3 Este 12 Nordeste 0 -- -- 84
2020-01-24 19:00:00 4.4 6 Este 12 Este 0 -- -- 83
2020-01-24 18:00:00 6.5 4 Sudoeste 12 Sudoeste 0 -- -- 75
2020-01-24 17:00:00 7.2 4 Noroeste 20 Oeste 0 -- -- 71
2020-01-24 16:00:00 7.1 11 Sudoeste 17 Oeste 0 -- -- 76
2020-01-24 15:00:00 7.8 7 Sudoeste 14 Sudoeste 0 -- -- 78
2020-01-24 14:00:00 6.6 9 Sudoeste 20 Sudoeste 0 -- -- 82
2020-01-24 13:00:00 7.7 7 Sudoeste 13 Oeste 0 -- -- 73
2020-01-24 12:00:00 7.1 9 Sudoeste 13 Sudoeste 0 -- -- 80
2020-01-24 11:00:00 5.6 0 Calma 5 Sudeste 0 -- -- 87
2020-01-24 10:00:00 3.4 3 Norte 8 Nordeste 0 -- -- 94
2020-01-24 09:00:00 2.2 4 Este 6 Este 0 -- -- 96
2020-01-24 08:00:00 2.4 0 Calma 6 Sudoeste 0 -- -- 94
2020-01-24 07:00:00 3 4 Nordeste 6 Nordeste 0.2 -- -- 93
2020-01-24 06:00:00 3.1 0 Calma 8 Sudoeste 0.4 -- -- 93
2020-01-24 05:00:00 3.4 4 Sudeste 12 Sudeste 0.8 -- -- 91
2020-01-24 04:00:00 3.6 0 Calma 6 Nordeste 1.4 -- -- 94
2020-01-24 03:00:00 3.7 3 Norte 16 Sudeste 1.8 -- -- 92
2020-01-24 02:00:00 4.1 4 Sur 9 Sur 1.6 -- -- 95
2020-01-24 01:00:00 4.5 2 Norte 9 Sudeste 1 -- -- 95
2020-01-24 00:00:00 4.6 6 Nordeste 9 Nordeste 1.6 -- -- 95
2020-01-23 23:00:00 4.6 5 Sudeste 12 Sudeste 1 -- -- 95
2020-01-23 22:00:00 4.7 4 Sur 11 Sudeste 1.2 -- -- 94
2020-01-23 21:00:00 4.9 3 Sudeste 8 Sur 0.8 -- -- 94
2020-01-23 20:00:00 4.9 4 Sudoeste 18 Sudoeste 0.4 -- -- 92
2020-01-23 19:00:00 4.4 4 Este 8 Nordeste 1 -- -- 95
2020-01-23 18:00:00 4.7 2 Norte 8 Este 1.2 -- -- 94
2020-01-23 17:00:00 5 4 Sudeste 8 Sudeste 1.2 -- -- 92
2020-01-23 16:00:00 5.4 0 Calma 9 Este 0.8 -- -- 92
2020-01-23 15:00:00 5 6 Sudeste 9 Sur 0.2 -- -- 93
2020-01-23 14:00:00 4.6 0 Calma 12 Sudoeste 0.6 -- -- 94
2020-01-23 13:00:00 5.1 3 Oeste 13 Sudoeste 0.2 -- -- 92
2020-01-23 12:00:00 4.7 2 Nordeste 9 Este 0.6 -- -- 93
2020-01-23 11:00:00 4.2 4 Este 8 Noroeste 1 -- -- 94
2020-01-23 10:00:00 3.8 3 Sudeste 10 Sudeste 0.6 -- -- 94
2020-01-23 09:00:00 3.6 2 Sudeste 10 Sudeste 0.2 -- -- 93
2020-01-23 08:00:00 3.6 6 Nordeste 10 Nordeste 0.4 -- -- 92
2020-01-23 07:00:00 3.5 5 Sudeste 10 Sudeste 1 -- -- 93
2020-01-23 06:00:00 3.7 2 Este 20 Este 1 -- -- 91
2020-01-23 05:00:00 4.3 6 Este 25 Este 0.6 -- -- 85
2020-01-23 04:00:00 4.5 19 Este 28 Este 0.8 -- -- 83
2020-01-23 03:00:00 4.8 17 Este 28 Este 0 -- -- 79
2020-01-23 02:00:00 5.6 17 Este 28 Este 0 -- -- 70
2020-01-23 01:00:00 5.5 19 Este 28 Este 0 -- -- 71
2020-01-23 00:00:00 5.3 18 Este 27 Este 0 -- -- 73
2020-01-22 23:00:00 5.4 18 Nordeste 31 Este 0 -- -- 71
2020-01-22 22:00:00 5 17 Este 27 Nordeste 0 -- -- 72
2020-01-22 21:00:00 5.2 15 Nordeste 24 Este 0 -- -- 69
2020-01-22 20:00:00 5.2 12 Este 28 Este 0 -- -- 68
2020-01-22 19:00:00 5.4 15 Este 23 Este 0 -- -- 68
2020-01-22 18:00:00 6.2 9 Nordeste 15 Este 0 -- -- 67
2020-01-22 17:00:00 6.7 6 Este 17 Este 0 -- -- 65
2020-01-22 16:00:00 7 5 Noroeste 13 Nordeste 0 -- -- 68
2020-01-22 15:00:00 6.7 5 Norte 23 Nordeste 0 -- -- 70
2020-01-22 14:00:00 6.2 9 Nordeste 25 Norte 0 -- -- 73
2020-01-22 13:00:00 6.3 3 Sudoeste 19 Este 0 -- -- 79
2020-01-22 12:00:00 6.3 15 Nordeste 27 Norte 0 -- -- 73
2020-01-22 11:00:00 4.6 17 Este 29 Este 0.2 -- -- 84
2020-01-22 10:00:00 3.1 19 Este 40 Este 0.2 -- -- 89
2020-01-22 09:00:00 3.2 23 Este 37 Este 0.2 -- -- 88
2020-01-22 08:00:00 2.5 18 Este 29 Este 1.2 -- -- 91
2020-01-22 07:00:00 3.3 21 Este 43 Este 0 -- -- 87
2020-01-22 06:00:00 2.9 21 Este 33 Este 0.4 -- -- 89
2020-01-22 05:00:00 3.6 19 Este 33 Este 0.2 -- -- 87
2020-01-22 04:00:00 3.2 23 Este 34 Este 0.4 -- -- 88
2020-01-22 03:00:00 3.5 19 Este 34 Nordeste 0.4 -- -- 87
2020-01-22 02:00:00 3.1 15 Este 32 Nordeste 0.4 -- -- 89
2020-01-22 01:00:00 3.2 21 Este 34 Este 0 -- -- 87
2020-01-22 00:00:00 2.5 17 Este 31 Este 0.4 -- -- 90
2020-01-21 23:00:00 2.9 17 Este 35 Este 0 -- -- 87
2020-01-21 22:00:00 3.6 17 Este 37 Este 0 -- -- 82
2020-01-21 21:00:00 3 16 Este 41 Este 0.2 -- -- 87
2020-01-21 20:00:00 2.8 20 Este 37 Nordeste 0.4 -- -- 88
2020-01-21 19:00:00 3 22 Este 37 Este 0 -- -- 85
2020-01-21 18:00:00 2.7 27 Este 47 Este 0 -- -- 84
2020-01-21 17:00:00 2.4 21 Este 39 Este 0 -- -- 83
2020-01-21 16:00:00 2.2 17 Este 39 Este 0.2 -- -- 85
2020-01-21 15:00:00 2.6 22 Este 41 Nordeste 0 -- -- 82
2020-01-21 14:00:00 2.2 24 Este 38 Este 0 -- -- 81
2020-01-21 13:00:00 2.5 19 Este 44 Este 0 -- -- 80
2020-01-21 12:00:00 2.4 27 Este 46 Este 0 -- -- 76
2020-01-21 11:00:00 1.7 29 Este 47 Este 0 -- -- 75
2020-01-21 10:00:00 1.2 23 Este 41 Este 0 -- -- 75
2020-01-21 09:00:00 2.5 21 Este 44 Este 0 -- -- 73
2020-01-21 08:00:00 2.2 21 Este 37 Nordeste 0 -- -- 74
2020-01-21 07:00:00 1.9 21 Este 39 Este 0 -- -- 75
2020-01-21 06:00:00 1.6 21 Este 37 Este 0 -- -- 75
2020-01-21 05:00:00 0.7 14 Nordeste 36 Nordeste 0 -- -- 79
2020-01-21 04:00:00 0.3 21 Nordeste 40 Este 0 -- -- 80
2020-01-21 03:00:00 1 22 Nordeste 40 Nordeste 0 -- -- 79
2020-01-21 02:00:00 0.7 22 Este 41 Nordeste 0 -- -- 82
2020-01-21 01:00:00 0.2 28 Nordeste 44 Nordeste 0 -- -- 79
2020-01-21 00:00:00 0.6 30 Este 50 Este 0 -- -- 77
2020-01-20 23:00:00 0.2 29 Este 49 Este 0 -- -- 78
2020-01-20 22:00:00 0.2 28 Este 49 Este 0 -- -- 74
2020-01-20 21:00:00 0.4 26 Este 56 Este 0 -- -- 71
2020-01-20 20:00:00 0 25 Este 47 Nordeste 0 -- -- 73
2020-01-20 19:00:00 0.1 29 Este 51 Nordeste 0 -- -- 71
2020-01-20 18:00:00 0.2 33 Nordeste 55 Nordeste 0 -- -- 68
2020-01-20 17:00:00 0.4 34 Nordeste 67 Este 0 -- -- 65
2020-01-20 16:00:00 0.6 31 Nordeste 59 Nordeste 0 -- -- 66
2020-01-20 15:00:00 -0.3 39 Nordeste 67 Nordeste 0 -- -- 70
2020-01-20 14:00:00 0.9 41 Nordeste 65 Nordeste 0 -- -- 57
2020-01-20 13:00:00 0.5 27 Nordeste 50 Norte 0 -- -- 61
2020-01-20 12:00:00 -0.6 33 Nordeste 53 Nordeste 0 -- -- 63
2020-01-20 11:00:00 -1.5 32 Este 56 Nordeste 0 -- -- 67
2020-01-20 10:00:00 -2.4 31 Nordeste 50 Nordeste 0 -- -- 69
2020-01-20 09:00:00 -2.7 28 Nordeste 53 Nordeste 0 -- -- 70
2020-01-20 08:00:00 -2.5 30 Nordeste 55 Nordeste 0 -- -- 68
2020-01-20 07:00:00 -2.3 31 Nordeste 54 Nordeste 0 -- -- 68
2020-01-20 06:00:00 -2 32 Nordeste 60 Nordeste 0 -- -- 68
2020-01-20 05:00:00 -1.7 33 Nordeste 70 Nordeste 0 -- -- 67
2020-01-20 04:00:00 -1.3 37 Nordeste 64 Nordeste 0 -- -- 64
2020-01-20 03:00:00 -0.7 35 Nordeste 62 Nordeste 0 -- -- 63
2020-01-20 02:00:00 -0.3 30 Nordeste 62 Nordeste 0 -- -- 64
2020-01-20 01:00:00 -0.1 33 Nordeste 63 Nordeste 0 -- -- 64
2020-01-20 00:00:00 0 36 Nordeste 68 Este 0 -- -- 63
2020-01-19 23:00:00 0 38 Nordeste 69 Nordeste 0 -- -- 63
2020-01-19 22:00:00 0.3 30 Nordeste 50 Nordeste 0 -- -- 61
2020-01-19 21:00:00 0.7 29 Nordeste 56 Nordeste 0 -- -- 60
2020-01-19 20:00:00 1.6 30 Este 58 Este 0 -- -- 60
2020-01-19 19:00:00 2.5 31 Este 59 Nordeste 0 -- -- 64
2020-01-19 18:00:00 3.8 30 Este 66 Nordeste 0 -- -- 58
2020-01-19 17:00:00 5.1 30 Nordeste 62 Nordeste 0 -- -- 56
2020-01-19 16:00:00 5.4 38 Nordeste 64 Nordeste 0 -- -- 55
2020-01-19 15:00:00 4.8 33 Nordeste 64 Nordeste 0 -- -- 61
2020-01-19 14:00:00 4.5 30 Nordeste 66 Este 0 -- -- 65
2020-01-19 13:00:00 3.9 35 Nordeste 65 Nordeste 0 -- -- 71
2020-01-19 12:00:00 3.2 30 Nordeste 57 Nordeste 1 -- -- 78
2020-01-19 11:00:00 3.4 26 Este 48 Nordeste 0 -- -- 82
2020-01-19 10:00:00 3.9 28 Este 53 Nordeste 0.2 -- -- 80
2020-01-19 09:00:00 3.1 28 Este 53 Este 0 -- -- 87
2020-01-19 08:00:00 3.2 25 Este 49 Este 0 -- -- 87
2020-01-19 07:00:00 3.7 23 Este 44 Este 0 -- -- 85
2020-01-19 06:00:00 4.2 23 Este 43 Este 0.2 -- -- 83
2020-01-19 05:00:00 4.5 16 Nordeste 40 Este 0 -- -- 83
2020-01-19 04:00:00 4.7 14 Nordeste 37 Nordeste 0.4 -- -- 79
2020-01-19 03:00:00 5.1 15 Nordeste 35 Nordeste 0.2 -- -- 81
2020-01-19 02:00:00 5.4 13 Nordeste 29 Nordeste 0.8 -- -- 78
2020-01-19 01:00:00 5.6 12 Norte 45 Norte 0 -- -- 77
2020-01-19 00:00:00 5.3 8 Nordeste 47 Noroeste 0.2 -- -- 76
2020-01-18 23:00:00 5.8 18 Sudoeste 42 Oeste 0 -- -- 78
2020-01-18 22:00:00 6.3 14 Sur 30 Sudoeste 0 -- -- 87
2020-01-18 21:00:00 7.4 13 Sur 37 Sudoeste 0 -- -- 85
2020-01-18 20:00:00 6.8 20 Sudoeste 34 Sudoeste 0 -- -- 99
2020-01-18 19:00:00 6.9 17 Sudoeste 28 Sudoeste 0 -- -- 99
2020-01-18 18:00:00 7 14 Sudoeste 26 Sudoeste 0 -- -- 99
2020-01-18 17:00:00 6.9 18 Sudoeste 28 Sudoeste 0 -- -- 99
2020-01-18 16:00:00 7 14 Sudoeste 22 Sudoeste 0 -- -- 99
2020-01-18 15:00:00 6.8 13 Sudoeste 19 Sudoeste 0 -- -- 99
2020-01-18 14:00:00 6.4 9 Sudoeste 19 Oeste 0 -- -- 99
2020-01-18 13:00:00 6.1 12 Sudoeste 22 Sudoeste 0 -- -- 99
2020-01-18 12:00:00 6 17 Sudoeste 31 Sudoeste 0 -- -- 99
2020-01-18 11:00:00 5.9 22 Sudoeste 31 Sudoeste 0 -- -- 98
2020-01-18 10:00:00 5.5 20 Sudoeste 28 Sudoeste 0 -- -- 97
2020-01-18 09:00:00 5.5 14 Sudoeste 23 Sudoeste 0 -- -- 96
2020-01-18 08:00:00 5.2 10 Sudoeste 15 Sudoeste 0 -- -- 94
2020-01-18 07:00:00 5.3 12 Este 16 Este 0 -- -- 91
2020-01-18 06:00:00 5.2 6 Sudeste 9 Este 0 -- -- 96
2020-01-18 05:00:00 5.1 0 Calma 12 Sudoeste 0 -- -- 93
2020-01-18 04:00:00 5.6 12 Sudoeste 20 Sur 0 -- -- 88
2020-01-18 03:00:00 5.2 4 Sudoeste 18 Sudoeste 0 -- -- 90
2020-01-18 02:00:00 5.5 10 Sudoeste 19 Sudoeste 0 -- -- 90
2020-01-18 01:00:00 5.2 5 Sur 12 Sudoeste 0 -- -- 92
2020-01-18 00:00:00 5.3 2 Oeste 10 Sur 0 -- -- 91
2020-01-17 23:00:00 5.8 5 Sur 12 Sur 0 -- -- 88
2020-01-17 22:00:00 5.4 6 Nordeste 10 Nordeste 0 -- -- 90
2020-01-17 21:00:00 5.6 5 Sudeste 9 Nordeste 0 -- -- 90
2020-01-17 20:00:00 5.7 3 Sudeste 9 Sudeste 0 -- -- 89
2020-01-17 19:00:00 5.8 4 Sudeste 10 Sudeste 0 -- -- 85
2020-01-17 18:00:00 9 4 Sur 11 Sudoeste 0 -- -- 71
2020-01-17 17:00:00 10 11 Sudoeste 22 Sudoeste 0 -- -- 64
2020-01-17 16:00:00 10.6 10 Sudoeste 17 Sudoeste 0 -- -- 64
2020-01-17 15:00:00 10.2 7 Sudoeste 18 Sudoeste 0 -- -- 72
2020-01-17 14:00:00 9.3 9 Oeste 17 Sudoeste 0 -- -- 87
2020-01-17 13:00:00 7.1 2 Noroeste 12 Sudoeste 0 -- -- 100
2020-01-17 12:00:00 6.4 8 Oeste 18 Sudoeste 0 -- -- 100
2020-01-17 11:00:00 5.9 11 Sudoeste 23 Sudoeste 0.4 -- -- 99
2020-01-17 10:00:00 5.5 12 Sudoeste 29 Sudoeste 0.6 -- -- 99
2020-01-17 09:00:00 5.4 17 Sudoeste 27 Sudoeste 0 -- -- 99
2020-01-17 08:00:00 5.3 15 Sudoeste 28 Sudoeste 0 -- -- 99
2020-01-17 07:00:00 5.2 17 Sudoeste 24 Sudoeste 0 -- -- 99
2020-01-17 06:00:00 5.4 17 Sudoeste 26 Sudoeste 0 -- -- 99
2020-01-17 05:00:00 5.4 17 Sudoeste 23 Sudoeste 0 -- -- 98
2020-01-17 04:00:00 5.7 15 Sudoeste 21 Sudoeste 0 -- -- 98
2020-01-17 03:00:00 5.6 13 Sudoeste 23 Sudoeste 0 -- -- 96
2020-01-17 02:00:00 5.9 13 Sudoeste 22 Sudoeste 0 -- -- 93
2020-01-17 01:00:00 6.1 14 Sudoeste 23 Sudoeste 0 -- -- 91
2020-01-17 00:00:00 5.7 13 Sudoeste 29 Sudoeste 0.4 -- -- 95
2020-01-16 23:00:00 5.8 15 Sudoeste 33 Sudoeste 0.8 -- -- 93
2020-01-16 22:00:00 6.2 24 Sudoeste 60 Sudoeste 1.6 -- -- 88
2020-01-16 21:00:00 7.7 24 Sudoeste 48 Sudoeste 0 -- -- 70
2020-01-16 20:00:00 8.4 32 Sudoeste 68 Sudoeste 0 -- -- 70
2020-01-16 19:00:00 8.1 29 Sudoeste 60 Sudoeste 0 -- -- 72
2020-01-16 18:00:00 8.5 30 Sudoeste 58 Oeste 0 -- -- 70
2020-01-16 17:00:00 9.6 35 Sudoeste 64 Sudoeste 0 -- -- 62
2020-01-16 16:00:00 9.3 27 Sudoeste 44 Sudoeste 0 -- -- 70
2020-01-16 15:00:00 10.2 30 Sudoeste 45 Oeste 0 -- -- 68
2020-01-16 14:00:00 9.1 27 Sudoeste 41 Sudoeste 0 -- -- 78
2020-01-16 13:00:00 8.5 22 Sudoeste 40 Sudoeste 0 -- -- 88
2020-01-16 12:00:00 7.5 26 Sudoeste 35 Sudoeste 0 -- -- 97
2020-01-16 11:00:00 6.8 19 Sudoeste 28 Sudoeste 0 -- -- 99
2020-01-16 10:00:00 7 18 Oeste 28 Oeste 0 -- -- 100
2020-01-16 09:00:00 7 15 Sudoeste 31 Sudoeste 0 -- -- 99
2020-01-16 08:00:00 7 14 Sudoeste 22 Sudoeste 0.2 -- -- 100
2020-01-16 07:00:00 7 11 Sudoeste 24 Sudoeste 0.2 -- -- 100
2020-01-16 06:00:00 6.9 15 Sudoeste 27 Sur 0 -- -- 100
2020-01-16 05:00:00 7 13 Sudoeste 22 Sudoeste 0 -- -- 99
2020-01-16 04:00:00 7.1 9 Sur 17 Sudoeste 0 -- -- 100
2020-01-16 03:00:00 7.1 10 Sudoeste 18 Sudoeste 0.2 -- -- 99
2020-01-16 02:00:00 7.1 10 Sudoeste 18 Sur 0.2 -- -- 100
2020-01-16 01:00:00 7.1 8 Sudoeste 15 Sudoeste 0.4 -- -- 100
2020-01-16 00:00:00 7.1 8 Sudoeste 15 Sudoeste 0.2 -- -- 99
2020-01-15 23:00:00 7 6 Sudoeste 15 Sur 0.2 -- -- 99
2020-01-15 22:00:00 7 6 Sudoeste 12 Sudoeste 1 -- -- 99
2020-01-15 21:00:00 7 7 Sudoeste 12 Sur 0.4 -- -- 99
2020-01-15 20:00:00 6.6 2 Sudoeste 11 Sur 0.2 -- -- 99
2020-01-15 19:00:00 6.3 10 Sudoeste 13 Sudoeste 0 -- -- 100
2020-01-15 18:00:00 6.1 6 Sudoeste 13 Sudoeste 0 -- -- 99
2020-01-15 17:00:00 5.9 11 Sudoeste 15 Sudoeste 0.2 -- -- 99
2020-01-15 16:00:00 5.8 11 Sudoeste 17 Sudoeste 1.2 -- -- 99
2020-01-15 15:00:00 5.7 10 Sudoeste 21 Sudoeste 1.6 -- -- 99
2020-01-15 14:00:00 5.5 12 Sudoeste 20 Sudoeste 1 -- -- 99
2020-01-15 13:00:00 5.2 15 Sudoeste 20 Sudoeste 2 -- -- 99
2020-01-15 12:00:00 5 15 Sudoeste 21 Sudoeste 2.4 -- -- 99
2020-01-15 11:00:00 4.7 15 Sudoeste 28 Sudoeste 2.8 -- -- 99
2020-01-15 10:00:00 4.5 17 Sudoeste 29 Sudoeste 2.4 -- -- 98
2020-01-15 09:00:00 4.3 20 Sudoeste 32 Oeste 2.6 -- -- 97
2020-01-15 08:00:00 4.4 20 Sudoeste 41 Sudoeste 2.4 -- -- 96
2020-01-15 07:00:00 5 21 Sudoeste 35 Sudoeste 0.2 -- -- 91
2020-01-15 06:00:00 5.3 25 Sudoeste 36 Sudoeste 0 -- -- 90
2020-01-15 05:00:00 5.1 21 Sudoeste 34 Sudoeste 0 -- -- 98
2020-01-15 04:00:00 5 19 Sudoeste 32 Sudoeste 0 -- -- 98
2020-01-15 03:00:00 4.9 22 Sudoeste 33 Sudoeste 0 -- -- 98
2020-01-15 02:00:00 4.9 21 Sudoeste 32 Sudoeste 0 -- -- 98
2020-01-15 01:00:00 4.8 24 Sudoeste 39 Sudoeste 0.2 -- -- 98
2020-01-15 00:00:00 4.9 22 Sudoeste 42 Sudoeste 0.6 -- -- 98
2020-01-14 23:00:00 4.8 20 Sudoeste 36 Sudoeste 1 -- -- 98
2020-01-14 22:00:00 4 19 Sudoeste 30 Sudoeste 1 -- -- 97
2020-01-14 21:00:00 3.9 18 Sudoeste 26 Sudoeste 0.8 -- -- 96
2020-01-14 20:00:00 4 18 Sudoeste 32 Sudoeste 0.4 -- -- 95
2020-01-14 19:00:00 4.3 15 Sudoeste 24 Sudoeste 0 -- -- 88
2020-01-14 18:00:00 4.9 15 Sudoeste 23 Sudoeste 0 -- -- 82
2020-01-14 17:00:00 5.2 16 Sudoeste 22 Sudoeste 0 -- -- 79
2020-01-14 16:00:00 5.9 12 Sudoeste 19 Sudoeste 0 -- -- 77
2020-01-14 15:00:00 4.4 9 Sudoeste 19 Sudoeste 0 -- -- 80
2020-01-14 14:00:00 3.9 11 Sudoeste 26 Sudoeste 0 -- -- 79
2020-01-14 13:00:00 3.9 4 Sur 13 Sudoeste 0 -- -- 77
2020-01-14 12:00:00 3.6 9 Sudoeste 21 Sudoeste 0 -- -- 76
2020-01-14 11:00:00 4 4 Sudoeste 9 Sur 0 -- -- 76
2020-01-14 10:00:00 2.8 5 Sudeste 14 Sudeste 0 -- -- 79
2020-01-14 09:00:00 1.1 11 Sudeste 15 Sudeste 0 -- -- 80
2020-01-14 08:00:00 0.5 6 Sudeste 9 Sudeste 0 -- -- 79
2020-01-14 07:00:00 0.9 0 Calma 8 Sudeste 0 -- -- 69
2020-01-14 06:00:00 0.8 0 Calma 7 Sudeste 0 -- -- 63
2020-01-14 05:00:00 1.9 2 Nordeste 10 Sudeste 0 -- -- 54
2020-01-14 04:00:00 1.7 6 Sudeste 10 Este 0 -- -- 50
2020-01-14 03:00:00 0.6 4 Nordeste 10 Sudeste 0 -- -- 72
2020-01-14 02:00:00 1.2 4 Sudeste 9 Sudeste 0 -- -- 73
2020-01-14 01:00:00 0.4 4 Este 8 Este 0 -- -- 71
2020-01-14 00:00:00 1.5 7 Sudeste 10 Este 0 -- -- 81
2020-01-13 23:00:00 2.2 3 Sur 10 Sur 0 -- -- 75
2020-01-13 22:00:00 2.5 4 Sur 13 Sudeste 0 -- -- 72
2020-01-13 21:00:00 1.9 2 Sudeste 8 Sudeste 0 -- -- 69
2020-01-13 20:00:00 2.5 2 Sur 9 Sur 0 -- -- 68
2020-01-13 19:00:00 3.9 5 Sur 14 Sudoeste 0 -- -- 64
2020-01-13 18:00:00 6.5 7 Sudoeste 12 Oeste 0 -- -- 57
2020-01-13 17:00:00 7 5 Sudoeste 16 Sudoeste 0 -- -- 50
2020-01-13 16:00:00 7.8 13 Sudoeste 17 Sudoeste 0 -- -- 51
2020-01-13 15:00:00 7.8 12 Sudoeste 20 Sudoeste 0 -- -- 53
2020-01-13 14:00:00 7.7 13 Sudoeste 19 Sudoeste 0 -- -- 50
2020-01-13 13:00:00 7.2 7 Sudoeste 13 Sudoeste 0 -- -- 51
2020-01-13 12:00:00 6.4 4 Sudoeste 9 Sudoeste 0 -- -- 51
2020-01-13 11:00:00 5.1 5 Sudoeste 10 Sudoeste 0 -- -- 46
2020-01-13 10:00:00 3.8 5 Sudeste 8 Nordeste 0 -- -- 49
2020-01-13 09:00:00 2.5 5 Este 12 Este 0 -- -- 53
2020-01-13 08:00:00 2.7 7 Sudeste 13 Sudeste 0 -- -- 51
2020-01-13 07:00:00 2.6 9 Sudeste 14 Sudeste 0 -- -- 49
2020-01-13 06:00:00 2.2 9 Este 14 Sudeste 0 -- -- 47
2020-01-13 05:00:00 2.1 10 Este 13 Este 0 -- -- 49
2020-01-13 04:00:00 1.3 6 Este 12 Sudeste 0 -- -- 50
2020-01-13 03:00:00 2.3 8 Sudeste 12 Este 0 -- -- 45
2020-01-13 02:00:00 2.9 7 Este 10 Este 0 -- -- 45
2020-01-13 01:00:00 2.8 7 Sudeste 13 Sudeste 0 -- -- 49
2020-01-13 00:00:00 4.1 3 Sudeste 13 Sudeste 0 -- -- 43
2020-01-12 23:00:00 4.1 8 Sudeste 12 Sudeste 0 -- -- 40
2020-01-12 22:00:00 3.5 6 Sudeste 12 Sudeste 0 -- -- 45
2020-01-12 21:00:00 3 0 Calma 9 Sudoeste 0 -- -- 57
2020-01-12 20:00:00 3.6 3 Sur 10 Este 0 -- -- 60
2020-01-12 19:00:00 3.8 6 Sudeste 8 Sudeste 0 -- -- 66
2020-01-12 18:00:00 7.7 2 Sur 6 Sudoeste 0 -- -- 54
2020-01-12 17:00:00 10.2 5 Sudoeste 9 Oeste 0 -- -- 44
2020-01-12 16:00:00 10.8 4 Sudoeste 8 Sudoeste 0 -- -- 37
2020-01-12 15:00:00 10.3 6 Sudoeste 11 Sudoeste 0 -- -- 38
2020-01-12 14:00:00 10 6 Sudoeste 10 Sudoeste 0 -- -- 36
2020-01-12 13:00:00 9.6 4 Sur 6 Sur 0 -- -- 29
2020-01-12 12:00:00 8.4 0 Calma 5 Este 0 -- -- 29
2020-01-12 11:00:00 5.1 2 Sudeste 13 Sudoeste 0 -- -- 33
2020-01-12 10:00:00 5.9 8 Este 42 Este 0 -- -- 31
2020-01-12 09:00:00 7 28 Este 45 Este 0 -- -- 22
2020-01-12 08:00:00 6.1 30 Este 54 Este 0 -- -- 29
2020-01-12 07:00:00 5.6 35 Este 48 Este 0 -- -- 36
2020-01-12 06:00:00 5.2 27 Este 44 Este 0 -- -- 39
2020-01-12 05:00:00 5.1 26 Este 41 Este 0 -- -- 41
2020-01-12 04:00:00 3 12 Nordeste 23 Nordeste 0 -- -- 47
2020-01-12 03:00:00 1.7 10 Sudeste 15 Sudeste 0 -- -- 58
2020-01-12 02:00:00 2.3 11 Sudeste 15 Sudeste 0 -- -- 58
2020-01-12 01:00:00 2.3 10 Sudeste 14 Este 0 -- -- 58
2020-01-12 00:00:00 2.8 11 Sudeste 17 Nordeste 0 -- -- 55
2020-01-11 23:00:00 4.1 8 Nordeste 23 Este 0 -- -- 55
2020-01-11 22:00:00 6.1 11 Este 33 Este 0 -- -- 49
2020-01-11 21:00:00 6 18 Este 32 Este 0 -- -- 51
2020-01-11 20:00:00 3.6 8 Sudeste 14 Sudeste 0 -- -- 60
2020-01-11 19:00:00 3.7 8 Sudeste 11 Sudeste 0 -- -- 68
2020-01-11 18:00:00 8.2 4 Sudoeste 9 Sudoeste 0 -- -- 55
2020-01-11 17:00:00 9.8 7 Sudoeste 12 Sudoeste 0 -- -- 49
2020-01-11 16:00:00 10.2 6 Sudoeste 10 Sudoeste 0 -- -- 43
2020-01-11 15:00:00 9.5 5 Sudoeste 11 Sudoeste 0 -- -- 41
2020-01-11 14:00:00 9.1 8 Sudoeste 12 Sudoeste 0 -- -- 42
2020-01-11 13:00:00 9.1 4 Sudoeste 6 Sudoeste 0 -- -- 38
2020-01-11 12:00:00 7.4 4 Sudoeste 8 Sudeste 0 -- -- 41
2020-01-11 11:00:00 4.4 3 Sudeste 18 Norte 0 -- -- 49
2020-01-11 10:00:00 4.3 17 Nordeste 41 Este 0 -- -- 44
2020-01-11 09:00:00 3.7 29 Este 45 Este 0 -- -- 53
2020-01-11 08:00:00 2.3 23 Nordeste 37 Nordeste 0 -- -- 60
2020-01-11 07:00:00 3.7 26 Nordeste 41 Este 0 -- -- 56
2020-01-11 06:00:00 3.4 28 Nordeste 37 Nordeste 0 -- -- 56
2020-01-11 05:00:00 3.7 22 Este 36 Este 0 -- -- 59
2020-01-11 04:00:00 3.3 25 Este 49 Este 0 -- -- 63
2020-01-11 03:00:00 3 26 Este 39 Este 0 -- -- 67
2020-01-11 02:00:00 3.5 27 Este 38 Este 0 -- -- 65
2020-01-11 01:00:00 3.7 24 Este 39 Este 0 -- -- 64
2020-01-11 00:00:00 4.1 26 Este 40 Este 0 -- -- 61
2020-01-10 23:00:00 4 21 Este 35 Este 0 -- -- 62
2020-01-10 22:00:00 4 19 Este 35 Este 0 -- -- 62
2020-01-10 21:00:00 3.8 19 Este 36 Este 0 -- -- 64
2020-01-10 20:00:00 4.1 19 Este 44 Este 0 -- -- 63
2020-01-10 19:00:00 4.6 17 Este 35 Este 0 -- -- 61
2020-01-10 18:00:00 6.3 19 Nordeste 40 Nordeste 0 -- -- 55
2020-01-10 17:00:00 7.7 21 Nordeste 41 Nordeste 0 -- -- 49
2020-01-10 16:00:00 8.7 25 Nordeste 41 Este 0 -- -- 44
2020-01-10 15:00:00 8.3 22 Nordeste 48 Nordeste 0 -- -- 46
2020-01-10 14:00:00 7.3 21 Nordeste 39 Nordeste 0 -- -- 53
2020-01-10 13:00:00 6.8 24 Nordeste 40 Nordeste 0 -- -- 53
2020-01-10 12:00:00 5.4 21 Este 37 Nordeste 0 -- -- 60
2020-01-10 11:00:00 3.9 23 Este 42 Este 0 -- -- 67
2020-01-10 10:00:00 2.6 22 Este 37 Este 0 -- -- 74
2020-01-10 09:00:00 1.8 21 Este 39 Nordeste 0 -- -- 80
2020-01-10 08:00:00 1.4 30 Nordeste 46 Nordeste 0 -- -- 83
2020-01-10 07:00:00 2.4 26 Nordeste 51 Nordeste 0 -- -- 80
2020-01-10 06:00:00 2.5 27 Nordeste 49 Nordeste 0 -- -- 79
2020-01-10 05:00:00 2.3 22 Nordeste 40 Nordeste 0 -- -- 79
2020-01-10 04:00:00 3.3 20 Nordeste 41 Nordeste 0 -- -- 76
2020-01-10 03:00:00 4.4 23 Este 44 Nordeste 0 -- -- 77
2020-01-10 02:00:00 5.4 25 Este 45 Este 0 -- -- 76
2020-01-10 01:00:00 6.2 24 Este 51 Nordeste 0 -- -- 72
2020-01-10 00:00:00 6.4 28 Nordeste 45 Nordeste 0 -- -- 74
2020-01-09 23:00:00 7.3 14 Este 26 Este 0 -- -- 78
2020-01-09 22:00:00 8.2 14 Nordeste 25 Este 0 -- -- 77
2020-01-09 21:00:00 8.2 7 Este 14 Sudeste 0 -- -- 70
2020-01-09 20:00:00 6.7 0 Calma 12 Este 0 -- -- 76
2020-01-09 19:00:00 6.7 3 Sur 11 Sudeste 0 -- -- 77
2020-01-09 18:00:00 8.7 4 Sur 10 Sudoeste 0 -- -- 69
2020-01-09 17:00:00 11.8 5 Oeste 15 Sudoeste 0 -- -- 57
2020-01-09 16:00:00 12.2 2 Sur 15 Sudoeste 0 -- -- 50
2020-01-09 15:00:00 11.8 13 Oeste 35 Nordeste 0 -- -- 48
2020-01-09 14:00:00 13.8 19 Nordeste 32 Nordeste 0 -- -- 52
2020-01-09 13:00:00 12.4 16 Nordeste 30 Nordeste 0 -- -- 47
2020-01-09 12:00:00 10.9 16 Este 25 Este 0 -- -- 46
2020-01-09 11:00:00 9.7 16 Nordeste 32 Este 0 -- -- 46
2020-01-09 10:00:00 7.9 20 Este 28 Este 0 -- -- 37
2020-01-09 09:00:00 5.5 10 Sudeste 14 Sudeste 0 -- -- 45
2020-01-09 08:00:00 6.3 4 Este 15 Sudeste 0 -- -- 43
2020-01-09 07:00:00 6.1 10 Sudeste 14 Sudeste 0 -- -- 42
2020-01-09 06:00:00 6 8 Este 14 Sudeste 0 -- -- 45
2020-01-09 05:00:00 6.6 8 Sudeste 14 Sudeste 0 -- -- 38
2020-01-09 04:00:00 6.6 7 Este 13 Sudeste 0 -- -- 38
2020-01-09 03:00:00 7.2 8 Sudeste 14 Sudeste 0 -- -- 37
2020-01-09 02:00:00 8.1 2 Sur 14 Sudeste 0 -- -- 36
2020-01-09 01:00:00 7.8 5 Sudeste 14 Sudeste 0 -- -- 38
2020-01-09 00:00:00 7.9 8 Sudeste 15 Sudeste 0 -- -- 38
2020-01-08 23:00:00 7.8 8 Sudeste 14 Sudeste 0 -- -- 42
2020-01-08 22:00:00 8.2 8 Sudeste 13 Sudeste 0 -- -- 40
2020-01-08 21:00:00 9.1 7 Sudeste 13 Sudeste 0 -- -- 37
2020-01-08 20:00:00 9.8 9 Sudeste 14 Sudeste 0 -- -- 35
2020-01-08 19:00:00 9.7 8 Sudeste 11 Sudeste 0 -- -- 38
2020-01-08 18:00:00 10.3 2 Este 5 Oeste 0 -- -- 44
2020-01-08 17:00:00 14.9 3 Sudoeste 5 Sudoeste 0 -- -- 33
2020-01-08 16:00:00 15 3 Sudoeste 8 Sudoeste 0 -- -- 31
2020-01-08 15:00:00 15.2 3 Sudoeste 8 Sudoeste 0 -- -- 26
2020-01-08 14:00:00 15.2 3 Sudoeste 9 Sudoeste 0 -- -- 23
2020-01-08 13:00:00 13.1 2 Sur 17 Norte 0 -- -- 26
2020-01-08 12:00:00 15.7 12 Este 43 Nordeste 0 -- -- 22
2020-01-08 11:00:00 12.5 22 Nordeste 48 Nordeste 0 -- -- 20
2020-01-08 10:00:00 12.2 21 Este 39 Este 0 -- -- 19
2020-01-08 09:00:00 12.1 28 Este 62 Nordeste 0 -- -- 18
2020-01-08 08:00:00 11.2 31 Nordeste 41 Nordeste 0 -- -- 22
2020-01-08 07:00:00 12.8 22 Este 36 Este 0 -- -- 19
2020-01-08 06:00:00 12.9 23 Este 41 Este 0 -- -- 20
2020-01-08 05:00:00 12.2 30 Este 45 Este 0 -- -- 26
2020-01-08 04:00:00 11.6 30 Este 49 Nordeste 0 -- -- 29
2020-01-08 03:00:00 10.5 34 Este 53 Nordeste 0 -- -- 26
2020-01-08 02:00:00 10.8 42 Nordeste 53 Nordeste 0 -- -- 24
2020-01-08 01:00:00 11.6 12 Nordeste 32 Nordeste 0 -- -- 22
2020-01-08 00:00:00 10.4 12 Nordeste 38 Nordeste 0 -- -- 26
2020-01-07 23:00:00 10.4 21 Nordeste 44 Nordeste 0 -- -- 28
2020-01-07 22:00:00 10.2 29 Nordeste 37 Nordeste 0 -- -- 30
2020-01-07 21:00:00 11.4 23 Nordeste 28 Nordeste 0 -- -- 29
2020-01-07 20:00:00 13.8 16 Este 29 Este 0 -- -- 24
2020-01-07 19:00:00 12.9 13 Este 24 Nordeste 0 -- -- 28
2020-01-07 18:00:00 13.8 7 Nordeste 18 Este 0 -- -- 26
2020-01-07 17:00:00 14.4 0 Calma 6 Sudoeste 0 -- -- 38
2020-01-07 16:00:00 15.2 2 Sudoeste 8 Sudoeste 0 -- -- 30
2020-01-07 15:00:00 14.5 4 Sudoeste 7 Oeste 0 -- -- 33
2020-01-07 14:00:00 13.6 4 Sudoeste 7 Sudoeste 0 -- -- 35
2020-01-07 13:00:00 13.6 0 Calma 22 Este 0 -- -- 32
2020-01-07 12:00:00 15.1 14 Este 25 Nordeste 0 -- -- 25
2020-01-07 11:00:00 13.7 12 Este 29 Nordeste 0 -- -- 27
2020-01-07 10:00:00 10.3 17 Nordeste 31 Nordeste 0 -- -- 32
2020-01-07 09:00:00 8.5 12 Este 20 Nordeste 0 -- -- 36
2020-01-07 08:00:00 7.7 12 Sudeste 22 Nordeste 0 -- -- 40
2020-01-07 07:00:00 7.7 11 Este 16 Sudeste 0 -- -- 40
2020-01-07 06:00:00 7.8 9 Sudeste 15 Sudeste 0 -- -- 39
2020-01-07 05:00:00 7.7 11 Sudeste 21 Sudeste 0 -- -- 40
2020-01-07 04:00:00 7.2 12 Este 19 Este 0 -- -- 42
2020-01-07 03:00:00 7.6 9 Sudeste 18 Este 0 -- -- 40
2020-01-07 02:00:00 8.3 9 Sudeste 34 Nordeste 0 -- -- 38
2020-01-07 01:00:00 9.2 27 Nordeste 39 Nordeste 0 -- -- 37
2020-01-07 00:00:00 8.3 17 Nordeste 37 Nordeste 0 -- -- 42
2020-01-06 23:00:00 10.9 16 Este 41 Este 0 -- -- 34
2020-01-06 22:00:00 10.9 24 Este 42 Este 0 -- -- 33
2020-01-06 21:00:00 9.3 20 Nordeste 35 Nordeste 0 -- -- 39
2020-01-06 20:00:00 8.4 10 Este 24 Este 0 -- -- 41
2020-01-06 19:00:00 7.3 4 Oeste 9 Sudoeste 0 -- -- 63
2020-01-06 18:00:00 8.6 0 Calma 5 Sudoeste 0 -- -- 51
2020-01-06 17:00:00 11.9 2 Sudoeste 8 Sudoeste 0 -- -- 42
2020-01-06 16:00:00 13.1 5 Sudoeste 11 Sudoeste 0 -- -- 34
2020-01-06 15:00:00 13.5 4 Sudoeste 14 Sudoeste 0 -- -- 33
2020-01-06 14:00:00 13.3 10 Oeste 27 Nordeste 0 -- -- 30
2020-01-06 13:00:00 12.4 2 Sur 6 Sudeste 0 -- -- 30
2020-01-06 12:00:00 9.7 5 Sudeste 10 Sudeste 0 -- -- 36
2020-01-06 11:00:00 7.3 3 Este 23 Este 0 -- -- 38
2020-01-06 10:00:00 10.1 15 Este 35 Este 0 -- -- 24